createdAt,value
2022-09-27T00:00:39.046Z,74.99
2022-09-27T00:03:07.951Z,74.98
2022-09-27T00:05:34.923Z,75.02
2022-09-27T00:08:02.045Z,75.19
2022-09-27T00:10:29.097Z,75.32
2022-09-27T00:12:56.038Z,75.29
2022-09-27T00:15:22.979Z,75.34
2022-09-27T00:17:52.857Z,75.68
2022-09-27T00:20:21.211Z,75.60
2022-09-27T00:22:49.201Z,75.44
2022-09-27T00:25:16.704Z,75.63
2022-09-27T00:27:43.560Z,75.37
2022-09-27T00:30:11.258Z,75.73
2022-09-27T00:32:38.134Z,75.79
2022-09-27T00:35:05.724Z,75.85
2022-09-27T00:37:32.571Z,75.86
2022-09-27T00:39:59.358Z,75.93
2022-09-27T00:42:26.082Z,76.32
2022-09-27T00:45:20.934Z,75.99
2022-09-27T00:47:54.891Z,76.09
2022-09-27T00:50:37.895Z,76.00
2022-09-27T00:53:12.397Z,76.17
2022-09-27T00:56:13.916Z,76.35
2022-09-27T00:58:48.345Z,76.24
2022-09-27T01:01:15.194Z,76.17
2022-09-27T01:03:50.880Z,76.38
2022-09-27T01:06:22.230Z,76.51
2022-09-27T01:08:49.499Z,76.48
2022-09-27T01:11:26.645Z,76.56
2022-09-27T01:14:40.757Z,76.88
2022-09-27T01:17:26.816Z,76.81
2022-09-27T01:20:50.193Z,77.12
2022-09-27T01:24:04.854Z,77.46
2022-09-27T01:27:10.107Z,77.47
2022-09-27T01:30:11.092Z,77.83
2022-09-27T01:32:45.321Z,77.88
2022-09-27T01:35:12.099Z,77.80
2022-09-27T01:37:44.563Z,78.05
2022-09-27T01:40:34.102Z,78.13
2022-09-27T01:43:12.339Z,78.31
2022-09-27T01:45:56.371Z,78.28
2022-09-27T01:48:24.537Z,78.17
2022-09-27T01:51:13.910Z,78.31
2022-09-27T01:53:53.189Z,78.25
2022-09-27T01:56:28.253Z,78.29
2022-09-27T01:59:01.846Z,78.13
2022-09-27T02:01:32.649Z,78.00
2022-09-27T02:04:01.953Z,78.02
2022-09-27T02:06:35.149Z,77.87
2022-09-27T02:09:19.497Z,77.93
2022-09-27T02:11:56.108Z,77.79
2022-09-27T02:14:28.139Z,77.75
2022-09-27T02:17:33.199Z,77.79
2022-09-27T02:20:17.338Z,77.71
2022-09-27T02:23:04.282Z,77.86
2022-09-27T02:25:42.126Z,77.73
2022-09-27T02:28:26.953Z,77.82
2022-09-27T02:30:53.821Z,77.66
2022-09-27T02:33:24.931Z,77.62
2022-09-27T02:35:51.709Z,77.66
2022-09-27T02:38:19.286Z,77.80
2022-09-27T02:40:47.834Z,77.82
2022-09-27T02:43:17.941Z,77.76
2022-09-27T02:45:47.463Z,77.91
2022-09-27T02:48:14.226Z,77.99
2022-09-27T02:51:08.444Z,77.85
2022-09-27T02:53:48.516Z,77.91
2022-09-27T02:56:34.808Z,78.08
2022-09-27T02:59:32.546Z,78.10
2022-09-27T03:02:30.177Z,78.28
2022-09-27T03:05:02.658Z,78.18
2022-09-27T03:07:29.821Z,78.18
2022-09-27T03:09:57.877Z,78.15
2022-09-27T03:12:27.939Z,78.17
2022-09-27T03:15:00.278Z,78.12
2022-09-27T03:17:27.279Z,78.06
2022-09-27T03:19:53.981Z,78.21
2022-09-27T03:22:20.670Z,78.07
2022-09-27T03:24:47.630Z,77.95
2022-09-27T03:27:14.359Z,78.03
2022-09-27T03:29:41.039Z,78.11
2022-09-27T03:32:07.816Z,77.92
2022-09-27T03:34:34.530Z,78.14
2022-09-27T03:37:02.128Z,78.15
2022-09-27T03:39:29.091Z,78.30
2022-09-27T03:41:55.882Z,78.41
2022-09-27T03:44:22.678Z,78.42
2022-09-27T03:46:49.455Z,78.46
2022-09-27T03:49:16.206Z,78.71
2022-09-27T03:51:43.282Z,78.65
2022-09-27T03:54:10.401Z,78.47
2022-09-27T03:56:37.130Z,78.43
2022-09-27T03:59:04.081Z,78.40
2022-09-27T04:01:30.948Z,78.39
2022-09-27T04:03:57.744Z,78.41
2022-09-27T04:06:24.618Z,78.37
2022-09-27T04:08:51.364Z,78.21
2022-09-27T04:11:18.163Z,78.18
2022-09-27T04:13:44.952Z,78.00
2022-09-27T04:16:11.677Z,77.91
2022-09-27T04:18:38.553Z,77.89
2022-09-27T04:21:05.429Z,77.58
2022-09-27T04:23:32.112Z,77.63
2022-09-27T04:25:58.935Z,77.64
2022-09-27T04:28:26.126Z,77.50
2022-09-27T04:30:52.946Z,77.56
2022-09-27T04:33:19.769Z,77.76
2022-09-27T04:36:05.009Z,77.43
2022-09-27T04:38:31.754Z,77.51
2022-09-27T04:41:01.476Z,77.44
2022-09-27T04:43:29.832Z,77.42
2022-09-27T04:45:56.601Z,77.47
2022-09-27T04:48:23.479Z,77.65
2022-09-27T04:51:02.367Z,77.41
2022-09-27T04:53:29.992Z,77.68
2022-09-27T04:55:57.278Z,77.39
2022-09-27T04:58:24.547Z,77.44
2022-09-27T05:00:52.482Z,77.55
2022-09-27T05:03:19.625Z,77.52
2022-09-27T05:05:46.310Z,77.59
2022-09-27T05:08:14.199Z,77.66
2022-09-27T05:10:41.106Z,77.69
2022-09-27T05:13:07.934Z,77.63
2022-09-27T05:15:35.440Z,77.57
2022-09-27T05:18:02.129Z,77.70
2022-09-27T05:20:29.470Z,77.78
2022-09-27T05:22:57.067Z,77.75
2022-09-27T05:25:24.291Z,77.65
2022-09-27T05:27:51.703Z,77.76
2022-09-27T05:30:19.276Z,77.70
2022-09-27T05:32:50.327Z,77.58
2022-09-27T05:35:21.080Z,77.64
2022-09-27T05:38:00.184Z,77.55
2022-09-27T05:40:40.773Z,77.51
2022-09-27T05:43:08.685Z,77.49
2022-09-27T05:45:35.428Z,77.65
2022-09-27T05:48:02.806Z,77.49
2022-09-27T05:50:29.705Z,77.61
2022-09-27T05:52:56.464Z,77.41
2022-09-27T05:55:23.302Z,77.54
2022-09-27T05:58:00.645Z,77.54
2022-09-27T06:00:28.824Z,77.62
2022-09-27T06:02:57.453Z,77.68
2022-09-27T06:05:25.509Z,77.56
2022-09-27T06:07:53.197Z,77.77
2022-09-27T06:10:20.190Z,77.73
2022-09-27T06:12:48.005Z,77.67
2022-09-27T06:15:14.794Z,77.91
2022-09-27T06:17:41.833Z,78.01
2022-09-27T06:20:09.617Z,77.97
2022-09-27T06:22:37.040Z,78.07
2022-09-27T06:25:04.677Z,78.07
2022-09-27T06:27:32.391Z,78.21
2022-09-27T06:29:59.164Z,78.23
2022-09-27T06:32:26.134Z,78.46
2022-09-27T06:34:52.989Z,78.48
2022-09-27T06:37:19.791Z,78.54
2022-09-27T06:39:49.169Z,78.54
2022-09-27T06:42:18.044Z,78.58
2022-09-27T06:44:49.406Z,78.62
2022-09-27T06:47:17.301Z,78.88
2022-09-27T06:49:43.986Z,78.58
2022-09-27T06:52:11.557Z,78.66
2022-09-27T06:54:38.321Z,78.69
2022-09-27T06:57:05.750Z,78.86
2022-09-27T06:59:51.031Z,78.74
2022-09-27T07:02:18.287Z,78.92
2022-09-27T07:04:46.096Z,78.83
2022-09-27T07:07:13.919Z,78.81
2022-09-27T07:09:40.858Z,78.86
2022-09-27T07:12:07.673Z,78.83
2022-09-27T07:14:36.095Z,78.88
2022-09-27T07:17:02.816Z,78.64
2022-09-27T07:19:29.526Z,78.73
2022-09-27T07:21:56.330Z,78.57
2022-09-27T07:24:23.257Z,78.51
2022-09-27T07:26:50.186Z,78.48
2022-09-27T07:29:16.942Z,78.60
2022-09-27T07:31:43.796Z,78.57
2022-09-27T07:34:12.434Z,78.47
2022-09-27T07:36:39.187Z,78.64
2022-09-27T07:39:06.322Z,78.32
2022-09-27T07:41:33.611Z,78.29
2022-09-27T07:44:00.504Z,78.21
2022-09-27T07:46:27.860Z,78.08
2022-09-27T07:48:54.632Z,78.03
2022-09-27T07:51:21.389Z,77.92
2022-09-27T07:53:48.142Z,77.93
2022-09-27T07:56:14.834Z,78.12
2022-09-27T07:58:42.165Z,78.05
2022-09-27T08:01:09.071Z,78.18
2022-09-27T08:03:36.324Z,77.87
2022-09-27T08:06:04.447Z,77.98
2022-09-27T08:08:31.121Z,77.99
2022-09-27T08:10:58.932Z,77.96
2022-09-27T08:13:25.731Z,77.87
2022-09-27T08:15:52.896Z,77.83
2022-09-27T08:18:22.063Z,77.75
2022-09-27T08:20:48.968Z,77.64
2022-09-27T08:23:15.773Z,77.62
2022-09-27T08:25:43.816Z,77.47
2022-09-27T08:28:10.555Z,77.26
2022-09-27T08:31:16.825Z,77.35
2022-09-27T08:33:43.599Z,77.28
2022-09-27T08:36:13.696Z,77.07
2022-09-27T08:38:40.386Z,76.73
2022-09-27T08:45:31.198Z,76.74
2022-09-27T08:48:05.176Z,76.62
2022-09-27T08:50:53.573Z,76.27
2022-09-27T08:58:20.416Z,76.07
2022-09-27T09:01:17.121Z,76.00
2022-09-27T09:07:53.070Z,75.85
2022-09-27T09:18:26.718Z,75.57
2022-09-27T09:37:11.122Z,75.08
2022-09-27T09:40:08.899Z,74.96
2022-09-27T09:46:45.575Z,74.51
2022-09-27T09:49:27.358Z,74.33
2022-09-27T09:55:36.693Z,74.21
2022-09-27T09:58:23.661Z,74.14
2022-09-27T10:04:51.441Z,73.69
2022-09-27T10:11:02.093Z,73.74
2022-09-27T10:13:33.780Z,73.39
2022-09-27T10:24:12.419Z,72.69
2022-09-27T10:27:04.240Z,72.13
2022-09-27T10:29:37.886Z,72.22
2022-09-27T10:32:45.433Z,71.97
2022-09-27T10:39:19.644Z,72.09
2022-09-27T10:41:46.424Z,72.32
2022-09-27T10:44:47.588Z,72.44
2022-09-27T10:47:23.131Z,72.70
2022-09-27T10:50:38.945Z,72.79
2022-09-27T11:01:39.984Z,72.93
2022-09-27T11:04:38.282Z,72.88
2022-09-27T11:07:25.492Z,73.13
2022-09-27T11:10:36.258Z,73.10
2022-09-27T11:13:24.330Z,73.19
2022-09-27T11:16:28.874Z,73.19
2022-09-27T11:19:24.727Z,73.53
2022-09-27T11:30:44.364Z,74.62
2022-09-27T11:33:32.802Z,74.68
2022-09-27T11:36:14.598Z,74.94
2022-09-27T11:39:11.302Z,75.26
2022-09-27T11:42:00.946Z,75.66
2022-09-27T11:44:39.779Z,76.32
2022-09-27T11:55:03.476Z,76.54
2022-09-27T11:58:34.057Z,76.86
2022-09-27T12:01:42.744Z,76.74
2022-09-27T12:04:48.238Z,76.41
2022-09-27T12:07:49.504Z,76.07
2022-09-27T12:15:06.469Z,75.37
2022-09-27T12:18:00.551Z,75.28
2022-09-27T12:24:25.196Z,75.08
2022-09-27T12:30:49.190Z,74.92
2022-09-27T12:33:30.888Z,74.76
2022-09-27T12:43:34.927Z,75.18
2022-09-27T12:54:35.750Z,75.01
2022-09-27T13:01:35.471Z,74.73
2022-09-27T13:04:11.210Z,74.54
2022-09-27T13:06:53.150Z,74.16
2022-09-27T13:09:51.605Z,74.12
2022-09-27T13:12:25.945Z,73.97
2022-09-27T13:18:53.115Z,73.55
2022-09-27T13:21:44.637Z,73.48
2022-09-27T13:24:43.205Z,73.24
2022-09-27T13:27:28.225Z,73.08
2022-09-27T13:33:50.595Z,72.79
2022-09-27T13:36:20.295Z,72.77
2022-09-27T13:39:04.560Z,72.74
2022-09-27T13:53:40.160Z,72.55
2022-09-27T13:56:48.295Z,72.31
2022-09-27T14:03:35.836Z,72.12
2022-09-27T14:06:28.985Z,72.29
2022-09-27T14:17:18.267Z,71.89
2022-09-27T14:20:08.326Z,71.83
2022-09-27T14:22:55.417Z,71.90
2022-09-27T14:29:44.922Z,71.36
2022-09-27T14:32:34.261Z,71.26
2022-09-27T14:35:43.801Z,71.22
2022-09-27T14:46:00.691Z,70.90
2022-09-27T14:56:40.674Z,70.48
2022-09-27T15:00:12.225Z,70.25
2022-09-27T15:06:57.223Z,70.37
2022-09-27T15:09:24.690Z,70.42
2022-09-27T15:15:35.420Z,70.33
2022-09-27T15:22:24.690Z,70.32
2022-09-27T15:32:31.923Z,70.08
2022-09-27T15:35:08.181Z,70.17
2022-09-27T15:45:31.517Z,70.25
2022-09-27T15:48:13.550Z,70.38
2022-09-27T15:50:41.490Z,70.44
2022-09-27T15:53:12.095Z,70.25
2022-09-27T15:59:26.926Z,70.00
2022-09-27T16:05:34.106Z,70.31
2022-09-27T16:12:09.118Z,70.46
2022-09-27T16:19:06.987Z,70.59
2022-09-27T16:25:28.731Z,70.75
2022-09-27T16:31:46.602Z,71.38
2022-09-27T16:38:03.913Z,71.94
2022-09-27T16:40:30.837Z,72.11
2022-09-27T16:43:51.730Z,72.34
2022-09-27T16:46:19.531Z,72.63
2022-09-27T16:52:55.438Z,73.12
2022-09-27T16:56:08.788Z,73.43
2022-09-27T16:58:35.513Z,73.62
2022-09-27T17:01:02.331Z,74.06
2022-09-27T17:20:09.236Z,74.60
2022-09-27T17:22:56.266Z,74.52
2022-09-27T17:25:43.283Z,74.77
2022-09-27T17:28:44.372Z,74.92
2022-09-27T17:31:15.553Z,75.01
2022-09-27T17:33:45.361Z,75.15
2022-09-27T17:39:52.761Z,75.28
2022-09-27T17:42:19.440Z,75.34
2022-09-27T17:44:54.593Z,75.28
2022-09-27T17:47:39.547Z,75.46
2022-09-27T18:02:29.339Z,75.66
2022-09-27T18:04:56.085Z,75.86
2022-09-27T18:07:22.799Z,76.11
2022-09-27T18:09:51.206Z,76.07
2022-09-27T18:12:18.053Z,76.16
2022-09-27T18:14:45.923Z,76.32
2022-09-27T18:21:23.872Z,76.47
2022-09-27T18:27:43.397Z,76.37
2022-09-27T18:30:10.580Z,76.72
2022-09-27T18:36:30.414Z,76.95
2022-09-27T18:42:47.960Z,77.21
2022-09-27T18:45:14.712Z,77.38
2022-09-27T18:47:41.656Z,77.36
2022-09-27T18:50:08.655Z,77.84
2022-09-27T18:52:35.645Z,77.92
2022-09-27T19:03:40.427Z,78.14
2022-09-27T19:06:12.504Z,78.00
2022-09-27T19:12:57.329Z,78.29
2022-09-27T19:15:24.866Z,78.63
2022-09-27T19:21:32.145Z,78.69
2022-09-27T19:23:58.936Z,78.83
2022-09-27T19:30:22.064Z,78.92
2022-09-27T19:32:53.730Z,78.96
2022-09-27T19:35:20.482Z,78.75
2022-09-27T19:38:35.320Z,78.90
2022-09-27T19:45:13.119Z,78.32
2022-09-27T19:55:31.265Z,78.05
2022-09-27T20:02:28.969Z,77.88
2022-09-27T20:05:05.531Z,77.73
2022-09-27T20:07:35.058Z,77.61
2022-09-27T20:23:20.039Z,76.83
2022-09-27T20:25:47.965Z,76.73
2022-09-27T20:28:14.727Z,76.65
2022-09-27T20:30:41.502Z,76.55
2022-09-27T20:33:26.586Z,76.58
2022-09-27T20:36:15.792Z,76.30
2022-09-27T20:38:44.711Z,76.36
2022-09-27T20:41:14.546Z,76.32
2022-09-27T20:47:32.146Z,76.05
2022-09-27T20:58:22.443Z,76.05
2022-09-27T21:01:10.587Z,76.16
2022-09-27T21:03:59.893Z,76.13
2022-09-27T21:06:47.300Z,76.11
2022-09-27T21:13:43.143Z,76.16
2022-09-27T21:16:35.680Z,76.22
2022-09-27T21:19:22.605Z,76.36
2022-09-27T21:29:54.283Z,76.21
2022-09-27T21:40:23.222Z,76.25
2022-09-27T21:51:08.369Z,76.23
2022-09-27T21:53:58.840Z,76.51
2022-09-27T22:00:16.736Z,76.22
2022-09-27T22:02:43.430Z,76.36
2022-09-27T22:05:10.161Z,76.28
2022-09-27T22:07:36.883Z,76.19
2022-09-27T22:10:03.785Z,76.38
2022-09-27T22:12:30.497Z,76.34
2022-09-27T22:14:57.227Z,76.49
2022-09-27T22:21:07.434Z,76.36
2022-09-27T22:23:34.610Z,76.29
2022-09-27T22:27:04.966Z,76.35
2022-09-27T22:33:11.894Z,76.34
2022-09-27T22:35:45.771Z,76.63
2022-09-27T22:38:12.505Z,76.77
2022-09-27T22:45:03.224Z,76.79
2022-09-27T22:47:29.947Z,76.89
2022-09-27T22:49:58.786Z,76.94
2022-09-27T22:52:26.183Z,77.01
2022-09-27T22:54:53.094Z,77.19
2022-09-27T22:57:19.810Z,77.12
2022-09-27T22:59:46.558Z,77.20
2022-09-27T23:02:13.263Z,77.31
2022-09-27T23:08:35.350Z,77.28
2022-09-27T23:18:55.028Z,77.27
2022-09-27T23:21:25.869Z,77.36
2022-09-27T23:23:55.337Z,77.47
2022-09-27T23:26:26.176Z,77.45
2022-09-27T23:28:56.925Z,77.48
2022-09-27T23:35:15.408Z,77.62
2022-09-27T23:37:43.173Z,77.69
2022-09-27T23:40:10.468Z,77.80
2022-09-27T23:42:37.151Z,77.82
2022-09-27T23:45:04.162Z,78.10
2022-09-27T23:47:30.987Z,78.13
2022-09-27T23:49:58.422Z,78.01
2022-09-27T23:52:26.260Z,78.10
2022-09-27T23:54:53.555Z,78.34
2022-09-27T23:57:20.221Z,78.27
2022-09-27T23:59:46.942Z,78.38
